Barter Island LRRS, AK

2:18 PM AKST on February 08, 2016 (GMT -0900)
Barter Island LRRS | | Change Station
CLOSE
Current Station
Airport
Location: Barter Island,
Elevation: 7 ft
Nearby Weather Stations

Elev 7 ft 70.13 °N, 143.58 °W | Updated 2 minutes ago

Light Snow
Light Snow
-2 °F
Feels Like -27 °F
N
25
Wind Variable Wind from ENE

Today
High -- | Low -- °F
--% Chance of Precip.
Yesterday
High -- | Low -- °F
Precip. -- in
Pressure 30.20 in
Visibility 6.0 miles
Clouds Overcast 1400 ft
Windchill -27 °F
Dew Point -8 °F
Humidity 78%
Rainfall 0.00 in
Snow Depth Not available.
9:45 AM 3:53 PM
New Moon, 0% visible
SPECI PABA 082316Z AUTO 07022KT 6SM -SN OVC014 M19/M22 A3020 RMK AO2 P0000 FZRANO
Pressure 30.20 in
Visibility 6.0 miles
Clouds Overcast 1400 ft
Windchill -27 °F
Dew Point -8 °F
Humidity 78%
Rainfall 0.00 in
Snow Depth Not available.
9:45 AM 3:53 PM
New Moon, 0% visible
SPECI PABA 082316Z AUTO 07022KT 6SM -SN OVC014 M19/M22 A3020 RMK AO2 P0000 FZRANO

10-Day Weather Forecast

Almanac

Astronomy

Feb. 08, 2016 Rise Set
Actual Time
Civil Twilight
Nautical Twilight
Astronomical Twilight
Moon
Length of Visible Light
Length of Day
Tomorrow will be .
, % of the Moon is Illuminated

Today's Extremes

State Highs State Lows

Community

WunderPhotos

Upload Photos

1,891,525 photos uploaded!

WunderBlog® & News

Nearby

Air Quality

  Air Quality AQ Index Pollutant
Not available.

Snow Depth

Station Depth Elevation

Earthquake Activity

City Distance Mag. Time & Date
Minimum magnitude displayed is 2.5.

Coastal Water Temperatures

Place Temperature

Stations

Nearby Weather Stations

Station Location Temp. Windchill Dew Point Humidity Wind Precip. Elev Updated Type
                   

Watches & Warnings

There are currently no watches in effect.